Weather at Valdemorillo Airstrip

Public forecast

Using degrees Celsius for public forecast. Weather courtesy of forecast.io.

Closest aviation weather report (METAR) to Valdemorillo Airstrip

Report is more than 2 hours old.

Closest report is Getafe Air Base, 18.9 nm (34.9 km) SE. Retrieved 2021/07/31 18:00 UTC (4 hours ago):

LEGT 311800Z 33014KT 300V360 CAVOK 24/08 Q1014

Closest aviation forecast (TAF) to Valdemorillo Airstrip

Closest forecast is Base AĆ©rea de Colmenar Viejo, 18.3 nm (33.8 km) NE. Retrieved 2021/07/31 18:26 UTC (4 hours ago):

TAF LECV 311700Z 3118/0118 34015KT 9999 SCT045 TX24/0115Z TN11/0105Z PROB40 TEMPO 3118/3119 35017G30KT BECMG 3119/3120 04010KT TEMPO 0103/0111 VRB05KT BECMG 0111/0113 20010KT BECMG 0117/0118 30010KT